sensor_id;sensor_type;location;lat;lon;timestamp;P1;durP1;ratioP1;P2;durP2;ratioP2
17595;SDS011;8916;47.086;15.920;2022-07-31T00:01:07;4.75;;;4.28;;
17595;SDS011;8916;47.086;15.920;2022-07-31T00:03:36;7.20;;;4.55;;
17595;SDS011;8916;47.086;15.920;2022-07-31T00:06:05;7.07;;;4.57;;
17595;SDS011;8916;47.086;15.920;2022-07-31T00:08:34;7.43;;;4.90;;
17595;SDS011;8916;47.086;15.920;2022-07-31T00:11:04;7.75;;;4.93;;
17595;SDS011;8916;47.086;15.920;2022-07-31T00:13:33;7.13;;;4.57;;
17595;SDS011;8916;47.086;15.920;2022-07-31T00:16:24;8.40;;;4.28;;
17595;SDS011;8916;47.086;15.920;2022-07-31T00:18:53;7.10;;;4.50;;
17595;SDS011;8916;47.086;15.920;2022-07-31T00:21:22;6.82;;;4.20;;
17595;SDS011;8916;47.086;15.920;2022-07-31T00:23:51;8.60;;;4.53;;
17595;SDS011;8916;47.086;15.920;2022-07-31T00:26:21;6.88;;;3.92;;
17595;SDS011;8916;47.086;15.920;2022-07-31T00:28:50;13.50;;;4.60;;
17595;SDS011;8916;47.086;15.920;2022-07-31T00:31:19;6.45;;;4.20;;
17595;SDS011;8916;47.086;15.920;2022-07-31T00:33:50;8.27;;;3.92;;
17595;SDS011;8916;47.086;15.920;2022-07-31T00:36:19;5.65;;;4.50;;
17595;SDS011;8916;47.086;15.920;2022-07-31T00:38:58;8.00;;;4.40;;
17595;SDS011;8916;47.086;15.920;2022-07-31T00:41:36;9.40;;;5.07;;
17595;SDS011;8916;47.086;15.920;2022-07-31T00:44:06;7.60;;;4.45;;
17595;SDS011;8916;47.086;15.920;2022-07-31T00:46:38;10.38;;;4.65;;
17595;SDS011;8916;47.086;15.920;2022-07-31T00:49:10;11.85;;;4.80;;
17595;SDS011;8916;47.086;15.920;2022-07-31T00:51:39;10.40;;;5.20;;
17595;SDS011;8916;47.086;15.920;2022-07-31T00:54:08;6.75;;;4.65;;
17595;SDS011;8916;47.086;15.920;2022-07-31T00:56:49;9.30;;;4.75;;
17595;SDS011;8916;47.086;15.920;2022-07-31T00:59:18;10.60;;;5.20;;
17595;SDS011;8916;47.086;15.920;2022-07-31T01:01:51;11.18;;;5.45;;
17595;SDS011;8916;47.086;15.920;2022-07-31T01:04:23;8.38;;;5.00;;
17595;SDS011;8916;47.086;15.920;2022-07-31T01:06:53;5.78;;;4.30;;
17595;SDS011;8916;47.086;15.920;2022-07-31T01:09:23;7.68;;;4.38;;
17595;SDS011;8916;47.086;15.920;2022-07-31T01:11:55;7.72;;;5.13;;
17595;SDS011;8916;47.086;15.920;2022-07-31T01:14:31;10.30;;;5.55;;
17595;SDS011;8916;47.086;15.920;2022-07-31T01:17:06;7.85;;;5.18;;
17595;SDS011;8916;47.086;15.920;2022-07-31T01:19:40;8.60;;;4.45;;
17595;SDS011;8916;47.086;15.920;2022-07-31T01:22:23;7.78;;;4.63;;
17595;SDS011;8916;47.086;15.920;2022-07-31T01:25:14;10.13;;;4.63;;
17595;SDS011;8916;47.086;15.920;2022-07-31T01:28:17;12.98;;;4.85;;
17595;SDS011;8916;47.086;15.920;2022-07-31T01:31:03;7.47;;;4.43;;
17595;SDS011;8916;47.086;15.920;2022-07-31T01:33:58;6.72;;;4.30;;
17595;SDS011;8916;47.086;15.920;2022-07-31T01:36:35;12.00;;;4.88;;
17595;SDS011;8916;47.086;15.920;2022-07-31T01:39:11;9.23;;;5.10;;
17595;SDS011;8916;47.086;15.920;2022-07-31T01:41:42;11.70;;;5.10;;
17595;SDS011;8916;47.086;15.920;2022-07-31T01:44:16;9.48;;;5.22;;
17595;SDS011;8916;47.086;15.920;2022-07-31T01:46:47;8.18;;;5.57;;
17595;SDS011;8916;47.086;15.920;2022-07-31T01:49:19;10.15;;;5.78;;
17595;SDS011;8916;47.086;15.920;2022-07-31T01:51:50;13.57;;;5.88;;
17595;SDS011;8916;47.086;15.920;2022-07-31T01:54:30;13.40;;;6.82;;
17595;SDS011;8916;47.086;15.920;2022-07-31T01:57:02;8.32;;;6.25;;
17595;SDS011;8916;47.086;15.920;2022-07-31T01:59:38;7.63;;;6.13;;
17595;SDS011;8916;47.086;15.920;2022-07-31T02:02:18;11.23;;;7.45;;
17595;SDS011;8916;47.086;15.920;2022-07-31T02:04:50;11.15;;;6.90;;
17595;SDS011;8916;47.086;15.920;2022-07-31T02:07:20;9.55;;;6.90;;
17595;SDS011;8916;47.086;15.920;2022-07-31T02:09:51;10.90;;;7.40;;
17595;SDS011;8916;47.086;15.920;2022-07-31T02:12:30;14.15;;;7.10;;
17595;SDS011;8916;47.086;15.920;2022-07-31T02:15:03;7.13;;;6.40;;
17595;SDS011;8916;47.086;15.920;2022-07-31T02:17:41;7.05;;;5.65;;
17595;SDS011;8916;47.086;15.920;2022-07-31T02:20:22;11.15;;;5.43;;
17595;SDS011;8916;47.086;15.920;2022-07-31T02:22:54;13.95;;;6.80;;
17595;SDS011;8916;47.086;15.920;2022-07-31T02:25:24;16.73;;;7.18;;
17595;SDS011;8916;47.086;15.920;2022-07-31T02:27:56;10.38;;;6.50;;
17595;SDS011;8916;47.086;15.920;2022-07-31T02:30:29;15.75;;;7.18;;
17595;SDS011;8916;47.086;15.920;2022-07-31T02:33:12;13.35;;;6.20;;
17595;SDS011;8916;47.086;15.920;2022-07-31T02:35:48;15.73;;;7.45;;
17595;SDS011;8916;47.086;15.920;2022-07-31T02:38:22;11.02;;;7.20;;
17595;SDS011;8916;47.086;15.920;2022-07-31T02:40:56;18.25;;;7.43;;
17595;SDS011;8916;47.086;15.920;2022-07-31T02:43:30;7.78;;;6.40;;
17595;SDS011;8916;47.086;15.920;2022-07-31T02:46:16;7.85;;;6.72;;
17595;SDS011;8916;47.086;15.920;2022-07-31T02:48:47;8.32;;;7.05;;
17595;SDS011;8916;47.086;15.920;2022-07-31T02:51:19;16.45;;;6.88;;
17595;SDS011;8916;47.086;15.920;2022-07-31T02:53:50;10.23;;;6.60;;
17595;SDS011;8916;47.086;15.920;2022-07-31T02:56:23;10.65;;;6.63;;
17595;SDS011;8916;47.086;15.920;2022-07-31T02:58:53;9.38;;;6.78;;
17595;SDS011;8916;47.086;15.920;2022-07-31T03:01:34;8.15;;;6.13;;
17595;SDS011;8916;47.086;15.920;2022-07-31T03:04:08;12.15;;;6.75;;
17595;SDS011;8916;47.086;15.920;2022-07-31T03:06:37;11.85;;;6.85;;
17595;SDS011;8916;47.086;15.920;2022-07-31T03:09:07;12.90;;;6.85;;
17595;SDS011;8916;47.086;15.920;2022-07-31T03:11:36;8.30;;;6.93;;
17595;SDS011;8916;47.086;15.920;2022-07-31T03:14:06;14.73;;;6.97;;
17595;SDS011;8916;47.086;15.920;2022-07-31T03:16:36;13.27;;;7.10;;
17595;SDS011;8916;47.086;15.920;2022-07-31T03:19:10;14.23;;;7.43;;
17595;SDS011;8916;47.086;15.920;2022-07-31T03:21:40;13.98;;;7.07;;
17595;SDS011;8916;47.086;15.920;2022-07-31T03:24:10;12.25;;;7.30;;
17595;SDS011;8916;47.086;15.920;2022-07-31T03:26:41;9.68;;;7.43;;
17595;SDS011;8916;47.086;15.920;2022-07-31T03:29:10;12.48;;;7.68;;
17595;SDS011;8916;47.086;15.920;2022-07-31T03:31:59;8.02;;;7.03;;
17595;SDS011;8916;47.086;15.920;2022-07-31T03:34:30;11.52;;;7.18;;
17595;SDS011;8916;47.086;15.920;2022-07-31T03:37:00;11.65;;;7.03;;
17595;SDS011;8916;47.086;15.920;2022-07-31T03:39:29;8.45;;;6.70;;
17595;SDS011;8916;47.086;15.920;2022-07-31T03:42:04;8.45;;;6.50;;
17595;SDS011;8916;47.086;15.920;2022-07-31T03:44:45;10.55;;;7.47;;
17595;SDS011;8916;47.086;15.920;2022-07-31T03:47:17;11.55;;;7.32;;
17595;SDS011;8916;47.086;15.920;2022-07-31T03:49:48;14.15;;;7.88;;
17595;SDS011;8916;47.086;15.920;2022-07-31T03:52:17;10.25;;;6.47;;
17595;SDS011;8916;47.086;15.920;2022-07-31T03:54:47;13.77;;;6.95;;
17595;SDS011;8916;47.086;15.920;2022-07-31T03:57:18;7.78;;;6.38;;
17595;SDS011;8916;47.086;15.920;2022-07-31T03:59:53;14.82;;;6.55;;
17595;SDS011;8916;47.086;15.920;2022-07-31T04:02:26;8.43;;;7.05;;
17595;SDS011;8916;47.086;15.920;2022-07-31T04:05:17;10.13;;;7.78;;
17595;SDS011;8916;47.086;15.920;2022-07-31T04:07:47;10.45;;;8.43;;
17595;SDS011;8916;47.086;15.920;2022-07-31T04:10:18;13.27;;;7.72;;
17595;SDS011;8916;47.086;15.920;2022-07-31T04:12:48;8.57;;;7.10;;
17595;SDS011;8916;47.086;15.920;2022-07-31T04:15:17;9.68;;;7.85;;
17595;SDS011;8916;47.086;15.920;2022-07-31T04:17:47;8.82;;;7.93;;
17595;SDS011;8916;47.086;15.920;2022-07-31T04:20:23;11.40;;;6.80;;
17595;SDS011;8916;47.086;15.920;2022-07-31T04:22:53;8.35;;;7.20;;
17595;SDS011;8916;47.086;15.920;2022-07-31T04:25:40;9.48;;;8.13;;
17595;SDS011;8916;47.086;15.920;2022-07-31T04:28:45;14.02;;;8.10;;
17595;SDS011;8916;47.086;15.920;2022-07-31T04:31:14;10.02;;;7.22;;
17595;SDS011;8916;47.086;15.920;2022-07-31T04:33:45;9.27;;;7.28;;
17595;SDS011;8916;47.086;15.920;2022-07-31T04:36:23;12.60;;;7.07;;
17595;SDS011;8916;47.086;15.920;2022-07-31T04:38:58;14.70;;;7.25;;
17595;SDS011;8916;47.086;15.920;2022-07-31T04:41:29;8.85;;;7.30;;
17595;SDS011;8916;47.086;15.920;2022-07-31T04:43:58;8.63;;;7.03;;
17595;SDS011;8916;47.086;15.920;2022-07-31T04:46:39;8.70;;;6.85;;
17595;SDS011;8916;47.086;15.920;2022-07-31T04:49:10;8.90;;;6.05;;
17595;SDS011;8916;47.086;15.920;2022-07-31T04:51:45;8.68;;;6.07;;
17595;SDS011;8916;47.086;15.920;2022-07-31T04:54:14;8.10;;;6.43;;
17595;SDS011;8916;47.086;15.920;2022-07-31T04:56:44;10.63;;;6.55;;
17595;SDS011;8916;47.086;15.920;2022-07-31T04:59:16;9.15;;;6.85;;
17595;SDS011;8916;47.086;15.920;2022-07-31T05:01:47;8.70;;;6.30;;
17595;SDS011;8916;47.086;15.920;2022-07-31T05:04:22;10.25;;;6.40;;
17595;SDS011;8916;47.086;15.920;2022-07-31T05:06:55;8.95;;;5.93;;
17595;SDS011;8916;47.086;15.920;2022-07-31T05:09:25;6.35;;;5.35;;
17595;SDS011;8916;47.086;15.920;2022-07-31T05:12:04;8.60;;;5.40;;
17595;SDS011;8916;47.086;15.920;2022-07-31T05:14:34;9.80;;;6.45;;
17595;SDS011;8916;47.086;15.920;2022-07-31T05:17:03;7.70;;;5.22;;
17595;SDS011;8916;47.086;15.920;2022-07-31T05:20:04;7.75;;;5.13;;
17595;SDS011;8916;47.086;15.920;2022-07-31T05:22:57;7.53;;;4.80;;
17595;SDS011;8916;47.086;15.920;2022-07-31T05:25:39;7.70;;;5.28;;
17595;SDS011;8916;47.086;15.920;2022-07-31T05:28:09;9.10;;;4.90;;
17595;SDS011;8916;47.086;15.920;2022-07-31T05:30:38;7.05;;;4.85;;
17595;SDS011;8916;47.086;15.920;2022-07-31T05:33:07;6.70;;;4.88;;
17595;SDS011;8916;47.086;15.920;2022-07-31T05:35:39;8.73;;;5.22;;
17595;SDS011;8916;47.086;15.920;2022-07-31T05:38:12;5.72;;;5.20;;
17595;SDS011;8916;47.086;15.920;2022-07-31T05:41:08;6.45;;;5.13;;
17595;SDS011;8916;47.086;15.920;2022-07-31T05:43:55;5.70;;;5.10;;
17595;SDS011;8916;47.086;15.920;2022-07-31T05:46:29;7.55;;;4.72;;
17595;SDS011;8916;47.086;15.920;2022-07-31T05:48:59;7.22;;;5.40;;
17595;SDS011;8916;47.086;15.920;2022-07-31T05:51:29;7.78;;;4.93;;
17595;SDS011;8916;47.086;15.920;2022-07-31T05:54:00;5.90;;;4.13;;
17595;SDS011;8916;47.086;15.920;2022-07-31T05:56:48;7.40;;;4.40;;
17595;SDS011;8916;47.086;15.920;2022-07-31T05:59:23;5.82;;;4.75;;
17595;SDS011;8916;47.086;15.920;2022-07-31T06:01:52;7.38;;;4.43;;
17595;SDS011;8916;47.086;15.920;2022-07-31T06:04:22;10.48;;;4.85;;
17595;SDS011;8916;47.086;15.920;2022-07-31T06:06:52;6.40;;;4.35;;
17595;SDS011;8916;47.086;15.920;2022-07-31T06:09:25;7.13;;;4.20;;
17595;SDS011;8916;47.086;15.920;2022-07-31T06:11:55;5.85;;;4.32;;
17595;SDS011;8916;47.086;15.920;2022-07-31T06:14:25;5.30;;;4.43;;
17595;SDS011;8916;47.086;15.920;2022-07-31T06:17:16;7.18;;;3.78;;
17595;SDS011;8916;47.086;15.920;2022-07-31T06:19:47;4.75;;;3.58;;
17595;SDS011;8916;47.086;15.920;2022-07-31T06:22:16;4.55;;;3.40;;
17595;SDS011;8916;47.086;15.920;2022-07-31T06:24:47;4.20;;;3.45;;
17595;SDS011;8916;47.086;15.920;2022-07-31T06:27:17;4.05;;;3.38;;
17595;SDS011;8916;47.086;15.920;2022-07-31T06:30:00;4.60;;;2.78;;
17595;SDS011;8916;47.086;15.920;2022-07-31T06:32:29;5.53;;;3.00;;
17595;SDS011;8916;47.086;15.920;2022-07-31T06:35:00;4.60;;;3.10;;
17595;SDS011;8916;47.086;15.920;2022-07-31T06:37:35;5.00;;;3.15;;
17595;SDS011;8916;47.086;15.920;2022-07-31T06:40:06;5.03;;;3.05;;
17595;SDS011;8916;47.086;15.920;2022-07-31T06:42:38;3.70;;;2.75;;
17595;SDS011;8916;47.086;15.920;2022-07-31T06:45:27;4.47;;;3.08;;
17595;SDS011;8916;47.086;15.920;2022-07-31T06:48:35;7.40;;;3.22;;
17595;SDS011;8916;47.086;15.920;2022-07-31T06:51:09;3.70;;;2.75;;
17595;SDS011;8916;47.086;15.920;2022-07-31T06:53:57;5.43;;;2.72;;
17595;SDS011;8916;47.086;15.920;2022-07-31T06:56:28;3.67;;;2.70;;
17595;SDS011;8916;47.086;15.920;2022-07-31T06:59:00;4.43;;;2.88;;
17595;SDS011;8916;47.086;15.920;2022-07-31T07:01:30;4.82;;;3.83;;
17595;SDS011;8916;47.086;15.920;2022-07-31T07:04:00;3.67;;;2.90;;
17595;SDS011;8916;47.086;15.920;2022-07-31T07:06:30;4.45;;;2.95;;
17595;SDS011;8916;47.086;15.920;2022-07-31T07:09:00;4.05;;;3.00;;
17595;SDS011;8916;47.086;15.920;2022-07-31T07:11:31;7.55;;;3.05;;
17595;SDS011;8916;47.086;15.920;2022-07-31T07:14:00;3.28;;;2.60;;
17595;SDS011;8916;47.086;15.920;2022-07-31T07:16:30;8.18;;;3.00;;
17595;SDS011;8916;47.086;15.920;2022-07-31T07:18:59;3.92;;;2.83;;
17595;SDS011;8916;47.086;15.920;2022-07-31T07:21:29;6.35;;;2.92;;
17595;SDS011;8916;47.086;15.920;2022-07-31T07:23:58;4.75;;;2.85;;
17595;SDS011;8916;47.086;15.920;2022-07-31T07:26:44;5.90;;;3.20;;
17595;SDS011;8916;47.086;15.920;2022-07-31T07:29:14;3.92;;;2.85;;
17595;SDS011;8916;47.086;15.920;2022-07-31T07:31:43;9.90;;;3.13;;
17595;SDS011;8916;47.086;15.920;2022-07-31T07:34:12;5.18;;;2.95;;
17595;SDS011;8916;47.086;15.920;2022-07-31T07:36:42;2.88;;;2.50;;
17595;SDS011;8916;47.086;15.920;2022-07-31T07:39:19;4.82;;;3.03;;
17595;SDS011;8916;47.086;15.920;2022-07-31T07:41:51;4.07;;;2.85;;
17595;SDS011;8916;47.086;15.920;2022-07-31T07:44:21;5.05;;;2.80;;
17595;SDS011;8916;47.086;15.920;2022-07-31T07:46:50;3.88;;;2.80;;
17595;SDS011;8916;47.086;15.920;2022-07-31T07:49:20;4.57;;;2.83;;
17595;SDS011;8916;47.086;15.920;2022-07-31T07:52:27;9.38;;;3.03;;
17595;SDS011;8916;47.086;15.920;2022-07-31T07:55:00;4.15;;;2.63;;
17595;SDS011;8916;47.086;15.920;2022-07-31T07:57:52;4.05;;;2.45;;
17595;SDS011;8916;47.086;15.920;2022-07-31T08:00:51;4.28;;;2.65;;
17595;SDS011;8916;47.086;15.920;2022-07-31T08:03:20;3.85;;;2.58;;
17595;SDS011;8916;47.086;15.920;2022-07-31T08:06:10;3.92;;;2.42;;
17595;SDS011;8916;47.086;15.920;2022-07-31T08:08:39;3.28;;;2.72;;
17595;SDS011;8916;47.086;15.920;2022-07-31T08:11:10;3.88;;;2.50;;
17595;SDS011;8916;47.086;15.920;2022-07-31T08:14:06;4.30;;;2.75;;
17595;SDS011;8916;47.086;15.920;2022-07-31T08:17:00;4.47;;;2.53;;
17595;SDS011;8916;47.086;15.920;2022-07-31T08:19:29;5.30;;;2.45;;
17595;SDS011;8916;47.086;15.920;2022-07-31T08:21:58;7.22;;;2.65;;
17595;SDS011;8916;47.086;15.920;2022-07-31T08:24:28;2.80;;;2.50;;
17595;SDS011;8916;47.086;15.920;2022-07-31T08:26:58;4.00;;;2.45;;
17595;SDS011;8916;47.086;15.920;2022-07-31T08:29:49;4.90;;;2.42;;
17595;SDS011;8916;47.086;15.920;2022-07-31T08:32:23;4.43;;;2.40;;
17595;SDS011;8916;47.086;15.920;2022-07-31T08:35:31;3.42;;;2.40;;
17595;SDS011;8916;47.086;15.920;2022-07-31T08:38:01;3.63;;;2.25;;
17595;SDS011;8916;47.086;15.920;2022-07-31T08:40:38;5.20;;;3.15;;
17595;SDS011;8916;47.086;15.920;2022-07-31T08:43:10;3.40;;;2.40;;
17595;SDS011;8916;47.086;15.920;2022-07-31T08:46:02;5.43;;;2.42;;
17595;SDS011;8916;47.086;15.920;2022-07-31T08:48:38;3.20;;;2.28;;
17595;SDS011;8916;47.086;15.920;2022-07-31T08:51:10;4.63;;;2.60;;
17595;SDS011;8916;47.086;15.920;2022-07-31T08:54:00;2.35;;;2.15;;
17595;SDS011;8916;47.086;15.920;2022-07-31T08:56:33;2.75;;;2.30;;
17595;SDS011;8916;47.086;15.920;2022-07-31T08:59:03;4.70;;;2.28;;
17595;SDS011;8916;47.086;15.920;2022-07-31T09:01:35;6.40;;;2.45;;
17595;SDS011;8916;47.086;15.920;2022-07-31T09:04:05;2.50;;;2.10;;
17595;SDS011;8916;47.086;15.920;2022-07-31T09:06:35;3.20;;;2.10;;
17595;SDS011;8916;47.086;15.920;2022-07-31T09:09:05;4.95;;;2.38;;
17595;SDS011;8916;47.086;15.920;2022-07-31T09:11:44;2.87;;;2.13;;
17595;SDS011;8916;47.086;15.920;2022-07-31T09:14:46;2.65;;;2.08;;
17595;SDS011;8916;47.086;15.920;2022-07-31T09:17:18;4.07;;;2.22;;
17595;SDS011;8916;47.086;15.920;2022-07-31T09:20:00;2.85;;;2.20;;
17595;SDS011;8916;47.086;15.920;2022-07-31T09:22:33;2.85;;;2.25;;
17595;SDS011;8916;47.086;15.920;2022-07-31T09:25:07;6.47;;;2.38;;
17595;SDS011;8916;47.086;15.920;2022-07-31T09:27:39;3.03;;;2.10;;
17595;SDS011;8916;47.086;15.920;2022-07-31T09:30:10;4.30;;;2.22;;
17595;SDS011;8916;47.086;15.920;2022-07-31T09:33:13;4.70;;;2.00;;
17595;SDS011;8916;47.086;15.920;2022-07-31T09:36:12;4.10;;;2.20;;
17595;SDS011;8916;47.086;15.920;2022-07-31T09:38:47;3.13;;;2.22;;
17595;SDS011;8916;47.086;15.920;2022-07-31T09:41:32;3.35;;;2.10;;
17595;SDS011;8916;47.086;15.920;2022-07-31T09:44:41;2.80;;;2.05;;
17595;SDS011;8916;47.086;15.920;2022-07-31T09:47:19;3.38;;;2.08;;
17595;SDS011;8916;47.086;15.920;2022-07-31T09:49:52;3.13;;;2.30;;
17595;SDS011;8916;47.086;15.920;2022-07-31T09:52:25;4.15;;;2.05;;
17595;SDS011;8916;47.086;15.920;2022-07-31T09:55:00;3.15;;;2.20;;
17595;SDS011;8916;47.086;15.920;2022-07-31T09:57:50;5.55;;;2.00;;
17595;SDS011;8916;47.086;15.920;2022-07-31T10:00:23;3.00;;;2.10;;
17595;SDS011;8916;47.086;15.920;2022-07-31T10:02:53;5.38;;;2.15;;
17595;SDS011;8916;47.086;15.920;2022-07-31T10:05:27;5.90;;;2.33;;
17595;SDS011;8916;47.086;15.920;2022-07-31T10:08:00;4.43;;;2.20;;
17595;SDS011;8916;47.086;15.920;2022-07-31T10:11:08;2.85;;;2.30;;
17595;SDS011;8916;47.086;15.920;2022-07-31T10:13:52;3.92;;;2.20;;
17595;SDS011;8916;47.086;15.920;2022-07-31T10:16:24;2.60;;;2.10;;
17595;SDS011;8916;47.086;15.920;2022-07-31T10:19:15;5.63;;;2.35;;
17595;SDS011;8916;47.086;15.920;2022-07-31T10:22:17;2.83;;;2.30;;
17595;SDS011;8916;47.086;15.920;2022-07-31T10:24:50;4.78;;;2.20;;
17595;SDS011;8916;47.086;15.920;2022-07-31T10:27:21;5.55;;;2.10;;
17595;SDS011;8916;47.086;15.920;2022-07-31T10:32:32;2.88;;;2.08;;
17595;SDS011;8916;47.086;15.920;2022-07-31T10:35:21;3.00;;;2.25;;
17595;SDS011;8916;47.086;15.920;2022-07-31T10:38:05;5.20;;;2.10;;
17595;SDS011;8916;47.086;15.920;2022-07-31T10:41:07;2.30;;;2.10;;
17595;SDS011;8916;47.086;15.920;2022-07-31T10:43:46;3.05;;;2.35;;
17595;SDS011;8916;47.086;15.920;2022-07-31T10:46:27;3.10;;;2.00;;
17595;SDS011;8916;47.086;15.920;2022-07-31T10:49:38;3.38;;;2.20;;
17595;SDS011;8916;47.086;15.920;2022-07-31T10:52:29;2.47;;;2.20;;
17595;SDS011;8916;47.086;15.920;2022-07-31T10:55:23;2.92;;;2.15;;
17595;SDS011;8916;47.086;15.920;2022-07-31T10:58:06;1.92;;;1.65;;
17595;SDS011;8916;47.086;15.920;2022-07-31T11:01:05;3.30;;;2.10;;
17595;SDS011;8916;47.086;15.920;2022-07-31T11:04:04;2.38;;;2.17;;
17595;SDS011;8916;47.086;15.920;2022-07-31T11:07:13;5.93;;;2.30;;
17595;SDS011;8916;47.086;15.920;2022-07-31T11:10:08;2.85;;;2.30;;
17595;SDS011;8916;47.086;15.920;2022-07-31T11:13:22;2.80;;;1.95;;
17595;SDS011;8916;47.086;15.920;2022-07-31T11:16:23;3.03;;;2.03;;
17595;SDS011;8916;47.086;15.920;2022-07-31T11:19:18;3.13;;;2.20;;
17595;SDS011;8916;47.086;15.920;2022-07-31T11:21:47;4.55;;;2.40;;
17595;SDS011;8916;47.086;15.920;2022-07-31T11:24:21;3.53;;;2.15;;
17595;SDS011;8916;47.086;15.920;2022-07-31T11:26:51;4.95;;;2.03;;
17595;SDS011;8916;47.086;15.920;2022-07-31T11:29:27;4.07;;;2.10;;
17595;SDS011;8916;47.086;15.920;2022-07-31T11:32:18;1.92;;;1.80;;
17595;SDS011;8916;47.086;15.920;2022-07-31T11:34:52;3.90;;;2.30;;
17595;SDS011;8916;47.086;15.920;2022-07-31T11:37:24;4.35;;;2.00;;
17595;SDS011;8916;47.086;15.920;2022-07-31T11:40:16;2.42;;;2.00;;
17595;SDS011;8916;47.086;15.920;2022-07-31T11:42:48;3.03;;;2.22;;
17595;SDS011;8916;47.086;15.920;2022-07-31T11:45:47;4.22;;;1.95;;
17595;SDS011;8916;47.086;15.920;2022-07-31T11:48:29;3.88;;;1.85;;
17595;SDS011;8916;47.086;15.920;2022-07-31T11:51:06;2.58;;;1.80;;
17595;SDS011;8916;47.086;15.920;2022-07-31T11:56:28;2.60;;;2.20;;
17595;SDS011;8916;47.086;15.920;2022-07-31T11:58:58;2.38;;;2.00;;
17595;SDS011;8916;47.086;15.920;2022-07-31T12:01:29;2.40;;;2.05;;
17595;SDS011;8916;47.086;15.920;2022-07-31T12:03:59;5.53;;;2.13;;
17595;SDS011;8916;47.086;15.920;2022-07-31T12:06:35;3.30;;;2.00;;
17595;SDS011;8916;47.086;15.920;2022-07-31T12:09:05;2.08;;;1.80;;
17595;SDS011;8916;47.086;15.920;2022-07-31T12:11:54;2.78;;;2.00;;
17595;SDS011;8916;47.086;15.920;2022-07-31T12:14:28;2.47;;;2.25;;
17595;SDS011;8916;47.086;15.920;2022-07-31T12:17:01;3.33;;;1.80;;
17595;SDS011;8916;47.086;15.920;2022-07-31T12:22:16;3.80;;;2.20;;
17595;SDS011;8916;47.086;15.920;2022-07-31T12:24:57;3.05;;;1.83;;
17595;SDS011;8916;47.086;15.920;2022-07-31T12:27:33;2.67;;;2.00;;
17595;SDS011;8916;47.086;15.920;2022-07-31T12:30:13;3.03;;;1.98;;
17595;SDS011;8916;47.086;15.920;2022-07-31T12:32:46;3.20;;;2.17;;
17595;SDS011;8916;47.086;15.920;2022-07-31T12:35:16;2.92;;;1.90;;
17595;SDS011;8916;47.086;15.920;2022-07-31T12:40:21;3.80;;;1.85;;
17595;SDS011;8916;47.086;15.920;2022-07-31T12:42:53;5.30;;;1.85;;
17595;SDS011;8916;47.086;15.920;2022-07-31T12:45:29;4.30;;;1.85;;
17595;SDS011;8916;47.086;15.920;2022-07-31T12:48:13;2.72;;;2.15;;
17595;SDS011;8916;47.086;15.920;2022-07-31T12:50:43;5.05;;;1.65;;
17595;SDS011;8916;47.086;15.920;2022-07-31T12:53:12;5.50;;;1.77;;
17595;SDS011;8916;47.086;15.920;2022-07-31T12:55:41;4.45;;;1.70;;
17595;SDS011;8916;47.086;15.920;2022-07-31T12:58:11;2.95;;;1.65;;
17595;SDS011;8916;47.086;15.920;2022-07-31T13:00:40;2.20;;;1.65;;
17595;SDS011;8916;47.086;15.920;2022-07-31T13:03:10;3.22;;;1.70;;
17595;SDS011;8916;47.086;15.920;2022-07-31T13:05:42;2.97;;;1.80;;
17595;SDS011;8916;47.086;15.920;2022-07-31T13:08:18;4.13;;;1.75;;
17595;SDS011;8916;47.086;15.920;2022-07-31T13:10:47;4.78;;;2.00;;
17595;SDS011;8916;47.086;15.920;2022-07-31T13:13:17;2.75;;;1.60;;
17595;SDS011;8916;47.086;15.920;2022-07-31T13:15:47;2.83;;;1.90;;
17595;SDS011;8916;47.086;15.920;2022-07-31T13:18:16;4.22;;;2.10;;
17595;SDS011;8916;47.086;15.920;2022-07-31T13:20:47;3.50;;;1.77;;
17595;SDS011;8916;47.086;15.920;2022-07-31T13:23:16;5.78;;;1.90;;
17595;SDS011;8916;47.086;15.920;2022-07-31T13:25:47;3.05;;;1.65;;
17595;SDS011;8916;47.086;15.920;2022-07-31T13:28:17;2.58;;;1.63;;
17595;SDS011;8916;47.086;15.920;2022-07-31T13:30:46;3.97;;;1.98;;
17595;SDS011;8916;47.086;15.920;2022-07-31T13:33:21;1.73;;;1.50;;
17595;SDS011;8916;47.086;15.920;2022-07-31T13:35:51;4.50;;;1.80;;
17595;SDS011;8916;47.086;15.920;2022-07-31T13:38:21;2.05;;;1.50;;
17595;SDS011;8916;47.086;15.920;2022-07-31T13:40:50;1.70;;;1.50;;
17595;SDS011;8916;47.086;15.920;2022-07-31T13:43:37;2.50;;;1.90;;
17595;SDS011;8916;47.086;15.920;2022-07-31T13:46:27;6.25;;;2.08;;
17595;SDS011;8916;47.086;15.920;2022-07-31T13:48:57;2.22;;;1.60;;
17595;SDS011;8916;47.086;15.920;2022-07-31T13:51:30;1.80;;;1.55;;
17595;SDS011;8916;47.086;15.920;2022-07-31T13:53:59;2.40;;;1.52;;
17595;SDS011;8916;47.086;15.920;2022-07-31T13:56:29;3.90;;;1.70;;
17595;SDS011;8916;47.086;15.920;2022-07-31T13:59:09;1.75;;;1.40;;
17595;SDS011;8916;47.086;15.920;2022-07-31T14:01:40;2.45;;;1.42;;
17595;SDS011;8916;47.086;15.920;2022-07-31T14:04:30;3.40;;;1.50;;
17595;SDS011;8916;47.086;15.920;2022-07-31T14:07:07;1.85;;;1.50;;
17595;SDS011;8916;47.086;15.920;2022-07-31T14:09:40;1.92;;;1.65;;
17595;SDS011;8916;47.086;15.920;2022-07-31T14:12:25;2.70;;;1.60;;
17595;SDS011;8916;47.086;15.920;2022-07-31T14:14:55;1.95;;;1.60;;
17595;SDS011;8916;47.086;15.920;2022-07-31T14:17:25;3.13;;;1.70;;
17595;SDS011;8916;47.086;15.920;2022-07-31T14:19:55;2.03;;;1.70;;
17595;SDS011;8916;47.086;15.920;2022-07-31T14:22:27;3.88;;;1.70;;
17595;SDS011;8916;47.086;15.920;2022-07-31T14:24:57;3.00;;;1.60;;
17595;SDS011;8916;47.086;15.920;2022-07-31T14:27:26;3.17;;;1.65;;
17595;SDS011;8916;47.086;15.920;2022-07-31T14:29:56;1.80;;;1.60;;
17595;SDS011;8916;47.086;15.920;2022-07-31T14:32:27;3.03;;;1.42;;
17595;SDS011;8916;47.086;15.920;2022-07-31T14:34:57;3.55;;;1.30;;
17595;SDS011;8916;47.086;15.920;2022-07-31T14:37:35;1.65;;;1.50;;
17595;SDS011;8916;47.086;15.920;2022-07-31T14:40:09;2.30;;;1.63;;
17595;SDS011;8916;47.086;15.920;2022-07-31T14:42:40;1.98;;;1.38;;
17595;SDS011;8916;47.086;15.920;2022-07-31T14:45:10;3.72;;;1.70;;
17595;SDS011;8916;47.086;15.920;2022-07-31T14:47:39;1.63;;;1.42;;
17595;SDS011;8916;47.086;15.920;2022-07-31T14:50:11;2.33;;;1.60;;
17595;SDS011;8916;47.086;15.920;2022-07-31T14:52:47;2.35;;;1.70;;
17595;SDS011;8916;47.086;15.920;2022-07-31T14:55:16;3.53;;;1.80;;
17595;SDS011;8916;47.086;15.920;2022-07-31T14:57:47;3.42;;;1.70;;
17595;SDS011;8916;47.086;15.920;2022-07-31T15:00:16;2.10;;;1.60;;
17595;SDS011;8916;47.086;15.920;2022-07-31T15:02:46;2.00;;;1.55;;
17595;SDS011;8916;47.086;15.920;2022-07-31T15:05:15;2.33;;;1.60;;
17595;SDS011;8916;47.086;15.920;2022-07-31T15:08:06;2.08;;;1.70;;
17595;SDS011;8916;47.086;15.920;2022-07-31T15:10:35;2.13;;;1.30;;
17595;SDS011;8916;47.086;15.920;2022-07-31T15:13:05;3.08;;;1.80;;
17595;SDS011;8916;47.086;15.920;2022-07-31T15:15:35;1.40;;;1.30;;
17595;SDS011;8916;47.086;15.920;2022-07-31T15:18:04;2.10;;;1.55;;
17595;SDS011;8916;47.086;15.920;2022-07-31T15:20:34;2.45;;;1.42;;
17595;SDS011;8916;47.086;15.920;2022-07-31T15:23:03;2.03;;;1.60;;
17595;SDS011;8916;47.086;15.920;2022-07-31T15:25:34;1.40;;;1.30;;
17595;SDS011;8916;47.086;15.920;2022-07-31T15:28:03;3.25;;;1.67;;
17595;SDS011;8916;47.086;15.920;2022-07-31T15:30:32;1.98;;;1.60;;
17595;SDS011;8916;47.086;15.920;2022-07-31T15:33:02;3.65;;;1.67;;
17595;SDS011;8916;47.086;15.920;2022-07-31T15:35:31;1.73;;;1.42;;
17595;SDS011;8916;47.086;15.920;2022-07-31T15:38:00;2.33;;;1.60;;
17595;SDS011;8916;47.086;15.920;2022-07-31T15:40:30;2.40;;;1.60;;
17595;SDS011;8916;47.086;15.920;2022-07-31T15:43:00;1.73;;;1.63;;
17595;SDS011;8916;47.086;15.920;2022-07-31T15:45:30;1.98;;;1.75;;
17595;SDS011;8916;47.086;15.920;2022-07-31T15:47:59;2.00;;;1.58;;